Time;durP1;ratioP1;P1;durP2;ratioP2;P2;SDS_P1;SDS_P2;PMS_P1;PMS_P2;Temp;Humidity;BMP_temperature;BMP_pressure;BME280_temperature;BME280_humidity;BME280_pressure;Samples;Min_cycle;Max_cycle;Signal;HPM_P1;HPM_P2
2021/09/01 00:01:48;;;;;;;16.80;5.75;;;;;;;14.16;83.33;102486.94;4987372;28;20064;-75
2021/09/01 00:04:14;;;;;;;17.85;6.30;;;;;;;14.16;83.48;102484.31;5005221;28;20038;-75
2021/09/01 00:06:39;;;;;;;14.95;6.07;;;;;;;14.18;83.73;102490.25;4989590;28;20034;-75
2021/09/01 00:09:05;;;;;;;12.20;6.28;;;;;;;14.19;83.73;102483.25;5004572;28;20492;-75
2021/09/01 00:11:31;;;;;;;18.90;6.47;;;;;;;14.18;83.84;102484.19;4986097;28;20034;-75
2021/09/01 00:13:56;;;;;;;14.18;6.43;;;;;;;14.20;83.91;102490.94;5001841;28;20068;-75
2021/09/01 00:16:28;;;;;;;14.63;6.70;;;;;;;14.23;83.81;102484.59;5005103;28;20069;-75
2021/09/01 00:18:55;;;;;;;14.77;5.60;;;;;;;14.24;83.67;102488.03;4987412;28;20114;-75
2021/09/01 00:21:21;;;;;;;14.45;5.75;;;;;;;14.25;83.90;102498.31;4998588;28;20117;-75
2021/09/01 00:23:47;;;;;;;15.10;6.47;;;;;;;14.25;83.75;102490.50;5001587;28;20038;-75
2021/09/01 00:26:13;;;;;;;17.27;6.20;;;;;;;14.26;83.76;102492.16;4986788;28;20034;-74
2021/09/01 00:28:38;;;;;;;14.10;6.05;;;;;;;14.28;83.76;102494.59;4987755;28;20030;-75
2021/09/01 00:31:04;;;;;;;17.70;6.75;;;;;;;14.29;83.59;102491.88;4986181;28;20034;-75
2021/09/01 00:33:29;;;;;;;19.83;6.05;;;;;;;14.31;83.50;102489.94;4987149;28;20116;-75
2021/09/01 00:35:55;;;;;;;15.27;6.18;;;;;;;14.30;83.60;102496.13;4986656;28;20026;-75
2021/09/01 00:38:20;;;;;;;15.30;6.88;;;;;;;14.30;83.58;102488.31;4987577;28;20042;-75
2021/09/01 00:40:45;;;;;;;16.13;6.30;;;;;;;14.34;83.20;102491.47;5001434;28;20034;-74
2021/09/01 00:43:11;;;;;;;17.40;5.45;;;;;;;14.33;83.44;102490.63;4986156;28;20846;-75
2021/09/01 00:45:36;;;;;;;17.13;6.15;;;;;;;14.33;83.39;102489.81;4984670;28;20031;-75
2021/09/01 00:48:02;;;;;;;20.55;6.05;;;;;;;14.35;83.22;102498.31;4986444;28;20042;-75
2021/09/01 00:50:28;;;;;;;16.17;6.47;;;;;;;14.33;83.42;102493.22;4999405;28;20097;-75
2021/09/01 00:52:54;;;;;;;15.05;6.75;;;;;;;14.35;83.54;102493.94;4986374;28;20037;-75
2021/09/01 00:55:22;;;;;;;13.35;5.97;;;;;;;14.38;83.42;102492.81;4985870;28;20546;-75
2021/09/01 00:57:49;;;;;;;13.60;5.82;;;;;;;14.38;83.54;102493.63;4986606;28;20382;-75
2021/09/01 01:00:23;;;;;;;13.23;5.65;;;;;;;14.38;83.48;102491.03;4986457;28;20042;-75
2021/09/01 01:02:49;;;;;;;10.30;5.20;;;;;;;14.39;83.46;102497.06;5000069;28;20119;-75
2021/09/01 01:05:14;;;;;;;11.27;5.25;;;;;;;14.39;83.22;102503.13;5000545;28;20038;-75
2021/09/01 01:07:40;;;;;;;11.10;5.97;;;;;;;14.39;83.17;102492.69;4986697;28;20030;-75
2021/09/01 01:10:06;;;;;;;17.15;6.55;;;;;;;14.39;82.96;102492.69;5000195;28;20046;-75
2021/09/01 01:12:32;;;;;;;10.38;5.65;;;;;;;14.39;82.85;102491.84;5000044;28;20073;-75
2021/09/01 01:14:58;;;;;;;11.95;5.55;;;;;;;14.41;83.01;102484.72;4999973;28;20039;-75
2021/09/01 01:17:23;;;;;;;15.35;5.97;;;;;;;14.40;82.84;102483.88;5000959;28;20088;-75
2021/09/01 01:19:52;;;;;;;13.70;5.95;;;;;;;14.41;83.07;102489.94;5000428;28;20035;-75
2021/09/01 01:22:22;;;;;;;23.13;5.72;;;;;;;14.40;83.16;102488.28;5001722;28;20022;-75
2021/09/01 01:25:01;;;;;;;12.43;5.38;;;;;;;14.40;83.19;102499.53;4984583;28;20054;-75
2021/09/01 01:27:28;;;;;;;14.68;5.03;;;;;;;14.43;83.11;102493.22;5000376;28;20043;-75
2021/09/01 01:30:14;;;;;;;14.80;6.10;;;;;;;14.43;83.25;102502.81;5000445;28;20083;-75
2021/09/01 01:32:42;;;;;;;15.05;5.43;;;;;;;14.43;83.36;102501.06;4997538;28;20066;-75
2021/09/01 01:35:08;;;;;;;13.27;5.72;;;;;;;14.44;83.17;102507.09;4986094;28;20105;-74
2021/09/01 01:37:34;;;;;;;16.45;5.43;;;;;;;14.41;83.22;102498.59;4985328;28;20069;-75
2021/09/01 01:39:59;;;;;;;17.98;5.88;;;;;;;14.43;82.83;102502.81;4986048;28;20026;-75
2021/09/01 01:42:25;;;;;;;14.02;5.28;;;;;;;14.46;82.53;102505.97;4985689;28;20022;-75
2021/09/01 01:44:50;;;;;;;18.27;6.32;;;;;;;14.42;82.27;102504.63;4985170;28;20064;-74
2021/09/01 01:47:16;;;;;;;14.23;5.10;;;;;;;14.41;82.24;102505.59;5000797;28;20045;-74
2021/09/01 01:49:41;;;;;;;19.42;5.35;;;;;;;14.50;81.72;102503.91;5000561;28;20473;-74
2021/09/01 01:52:07;;;;;;;17.52;5.97;;;;;;;14.44;81.52;102507.91;4986773;28;20043;-74
2021/09/01 01:54:33;;;;;;;15.40;4.90;;;;;;;14.40;81.95;102509.97;4984489;28;20378;-75
2021/09/01 01:57:00;;;;;;;10.60;4.60;;;;;;;14.44;82.22;102507.91;5002318;28;20057;-75
2021/09/01 01:59:25;;;;;;;13.27;4.93;;;;;;;14.41;82.54;102516.84;4985386;28;20081;-75
2021/09/01 02:01:51;;;;;;;14.40;5.43;;;;;;;14.39;82.65;102518.78;5000251;28;20038;-75
2021/09/01 02:04:16;;;;;;;16.17;5.10;;;;;;;14.43;82.26;102519.34;4998634;28;20045;-75
2021/09/01 02:06:42;;;;;;;11.98;4.75;;;;;;;14.41;82.38;102518.66;4986113;28;20542;-75
2021/09/01 02:09:08;;;;;;;12.60;4.68;;;;;;;14.41;82.59;102519.47;4986131;28;20046;-75
2021/09/01 02:11:33;;;;;;;9.52;4.70;;;;;;;14.41;82.88;102518.66;4999133;28;20049;-75
2021/09/01 02:13:59;;;;;;;15.55;5.32;;;;;;;14.39;83.15;102518.78;4998894;28;20065;-75
2021/09/01 02:16:25;;;;;;;9.75;4.70;;;;;;;14.40;83.29;102522.22;5001193;28;20417;-75
2021/09/01 02:18:50;;;;;;;15.40;4.90;;;;;;;14.39;83.18;102517.94;5000638;28;20042;-76
2021/09/01 02:21:16;;;;;;;15.20;4.85;;;;;;;14.39;83.10;102516.19;4966406;28;20069;-74
2021/09/01 02:23:41;;;;;;;10.68;5.47;;;;;;;14.43;82.76;102511.50;4998566;28;20034;-74
2021/09/01 02:26:06;;;;;;;16.77;4.78;;;;;;;14.43;82.05;102519.34;4985243;28;20034;-75
2021/09/01 02:28:32;;;;;;;12.82;4.88;;;;;;;14.41;82.37;102518.66;4984068;28;20471;-75
2021/09/01 02:30:57;;;;;;;10.85;4.15;;;;;;;14.38;82.63;102514.50;4988858;28;20034;-75
2021/09/01 02:33:23;;;;;;;22.73;5.00;;;;;;;14.37;82.83;102507.66;4984884;28;20049;-75
2021/09/01 02:35:48;;;;;;;10.95;4.88;;;;;;;14.36;82.85;102513.84;4983360;28;20112;-75
2021/09/01 02:38:14;;;;;;;9.20;4.65;;;;;;;14.37;83.16;102506.81;4984146;28;20037;-75
2021/09/01 02:40:39;;;;;;;12.60;5.72;;;;;;;14.44;82.76;102505.31;4983261;28;20037;-75
2021/09/01 02:43:05;;;;;;;17.20;5.63;;;;;;;14.38;82.86;102513.69;4998477;28;20030;-75
2021/09/01 02:45:31;;;;;;;14.63;4.68;;;;;;;14.37;83.03;102506.81;5004643;28;20632;-75
2021/09/01 02:47:57;;;;;;;15.50;4.63;;;;;;;14.35;83.35;102508.75;5001192;28;20030;-75
2021/09/01 02:50:23;;;;;;;15.20;4.78;;;;;;;14.36;83.38;102513.03;4983369;28;20443;-74
2021/09/01 02:52:49;;;;;;;13.30;5.18;;;;;;;14.36;83.42;102513.03;4999880;28;20034;-75
2021/09/01 02:55:14;;;;;;;15.43;5.07;;;;;;;14.35;83.68;102503.53;5000407;28;20493;-74
2021/09/01 02:57:40;;;;;;;11.85;5.20;;;;;;;14.36;83.72;102510.41;4986590;28;20037;-75
2021/09/01 03:00:07;;;;;;;13.90;5.85;;;;;;;14.38;83.92;102503.25;4984899;28;20034;-75
2021/09/01 03:02:33;;;;;;;17.00;4.15;;;;;;;14.37;83.85;102507.66;5000106;28;20031;-75
2021/09/01 03:04:58;;;;;;;14.82;4.93;;;;;;;14.37;83.91;102501.59;5000285;28;20431;-75
2021/09/01 03:07:24;;;;;;;10.95;5.22;;;;;;;14.37;83.99;102504.22;4999905;28;20034;-75
2021/09/01 03:09:49;;;;;;;11.48;4.47;;;;;;;14.36;84.00;102494.75;5001090;28;20162;-75
2021/09/01 03:12:15;;;;;;;12.68;4.80;;;;;;;14.35;84.22;102496.53;4999276;28;20037;-75
2021/09/01 03:14:40;;;;;;;15.05;5.90;;;;;;;14.34;84.52;102501.91;4986314;28;20037;-75
2021/09/01 03:17:06;;;;;;;17.95;6.00;;;;;;;14.32;84.53;102496.00;5004243;28;20026;-76
2021/09/01 03:19:31;;;;;;;11.35;4.78;;;;;;;14.31;84.75;102499.56;4988471;28;20023;-75
2021/09/01 03:21:56;;;;;;;17.08;5.30;;;;;;;14.30;85.00;102503.16;4986583;28;20492;-75
2021/09/01 03:24:22;;;;;;;12.90;5.88;;;;;;;14.33;84.86;102500.25;4988430;28;20065;-75
2021/09/01 03:26:47;;;;;;;11.80;4.85;;;;;;;14.31;84.68;102497.75;5004617;28;20030;-75
2021/09/01 03:29:13;;;;;;;11.20;4.63;;;;;;;14.31;84.67;102502.97;4988273;28;20026;-75
2021/09/01 03:31:38;;;;;;;13.63;5.45;;;;;;;14.31;84.87;102499.56;5003766;28;20041;-75
2021/09/01 03:34:04;;;;;;;11.30;4.55;;;;;;;14.30;84.92;102500.53;5003290;28;20034;-75
2021/09/01 03:36:29;;;;;;;13.23;5.85;;;;;;;14.30;84.96;102511.78;4989142;28;20045;-75
2021/09/01 03:38:55;;;;;;;9.35;4.38;;;;;;;14.31;84.95;102507.38;5002160;28;20041;-75
2021/09/01 03:41:20;;;;;;;14.23;5.00;;;;;;;14.33;84.72;102508.06;4989908;28;20034;-76
2021/09/01 03:43:46;;;;;;;10.25;4.85;;;;;;;14.35;84.28;102516.56;5002366;28;20092;-75
2021/09/01 03:46:11;;;;;;;10.77;4.10;;;;;;;14.37;84.23;102518.09;4988846;28;20034;-76
2021/09/01 03:48:37;;;;;;;9.27;4.70;;;;;;;14.36;84.10;102519.06;4971183;28;20515;-76
2021/09/01 03:51:02;;;;;;;8.82;4.15;;;;;;;14.37;84.12;102520.72;4988556;28;20519;-75
2021/09/01 03:53:28;;;;;;;9.75;4.43;;;;;;;14.39;83.91;102516.19;5001801;28;20038;-76
2021/09/01 03:55:54;;;;;;;9.70;4.85;;;;;;;14.37;84.19;102525.09;4987943;28;20485;-75
2021/09/01 03:58:19;;;;;;;9.45;4.03;;;;;;;14.36;84.55;102523.47;4983123;28;20400;-76
2021/09/01 04:00:45;;;;;;;9.70;4.85;;;;;;;14.36;84.48;102518.22;4986296;28;20150;-75
2021/09/01 04:03:10;;;;;;;8.40;4.72;;;;;;;14.35;84.53;102512.19;4990632;28;20385;-75
2021/09/01 04:05:36;;;;;;;7.97;4.53;;;;;;;14.34;84.40;102514.94;4988777;28;20026;-75
2021/09/01 04:08:02;;;;;;;11.75;4.85;;;;;;;14.33;84.25;102518.50;5003312;28;20038;-75
2021/09/01 04:10:27;;;;;;;12.18;4.32;;;;;;;14.33;84.51;102511.50;5001027;28;20026;-75
2021/09/01 04:12:53;;;;;;;11.20;4.65;;;;;;;14.33;84.60;102519.31;5001549;28;20528;-75
2021/09/01 04:15:18;;;;;;;12.38;5.63;;;;;;;14.35;84.66;102525.25;4985523;28;20500;-76
2021/09/01 04:17:44;;;;;;;9.43;5.22;;;;;;;14.30;84.91;102518.81;5003312;28;20038;-75
2021/09/01 04:20:10;;;;;;;16.42;5.72;;;;;;;14.28;85.49;102525.91;5001497;28;20036;-75
2021/09/01 04:22:35;;;;;;;13.75;5.32;;;;;;;14.25;85.86;102526.22;4987254;28;20431;-75
2021/09/01 04:25:01;;;;;;;14.52;5.88;;;;;;;14.26;85.93;102531.28;5001007;28;20096;-75
2021/09/01 04:27:27;;;;;;;13.35;5.03;;;;;;;14.24;86.09;102524.56;4986113;28;20046;-77
2021/09/01 04:29:53;;;;;;;13.10;5.63;;;;;;;14.24;86.13;102535.84;5002631;28;20489;-77
2021/09/01 04:32:19;;;;;;;16.27;5.65;;;;;;;14.24;85.73;102527.16;5002292;28;20034;-75
2021/09/01 04:34:44;;;;;;;10.70;5.57;;;;;;;14.26;85.49;102520.00;5000799;28;20034;-75
2021/09/01 04:37:10;;;;;;;12.57;5.07;;;;;;;14.28;85.26;102518.09;5003758;28;20038;-75
2021/09/01 04:39:35;;;;;;;13.30;5.32;;;;;;;14.28;84.81;102526.75;4987685;28;20057;-75
2021/09/01 04:42:02;;;;;;;11.98;5.00;;;;;;;14.29;84.89;102524.97;5001920;28;20205;-75
2021/09/01 04:44:27;;;;;;;10.70;5.00;;;;;;;14.30;84.58;102522.22;4986532;28;21364;-75
2021/09/01 04:46:53;;;;;;;10.25;4.47;;;;;;;14.31;84.65;102530.88;4987340;28;20489;-75
2021/09/01 04:49:18;;;;;;;9.32;4.82;;;;;;;14.31;84.32;102531.69;5001700;28;20042;-75
2021/09/01 04:51:44;;;;;;;11.15;4.78;;;;;;;14.31;84.34;102533.47;5003741;28;20045;-75
2021/09/01 04:54:09;;;;;;;15.68;4.78;;;;;;;14.32;84.19;102530.72;4998458;28;20054;-75
2021/09/01 04:56:35;;;;;;;17.33;5.35;;;;;;;14.32;84.05;102530.72;4986127;28;20034;-75
2021/09/01 04:59:00;;;;;;;9.43;4.60;;;;;;;14.32;84.09;102535.13;5002003;28;20035;-75
2021/09/01 05:01:26;;;;;;;10.35;4.95;;;;;;;14.33;84.08;102529.75;4989926;28;20373;-75
2021/09/01 05:03:51;;;;;;;13.27;4.70;;;;;;;14.33;83.95;102534.16;5002461;28;20177;-75
2021/09/01 05:06:17;;;;;;;9.70;4.93;;;;;;;14.33;83.84;102537.59;5002410;28;20084;-75
2021/09/01 05:08:42;;;;;;;10.18;4.75;;;;;;;14.34;83.63;102541.03;4988269;28;20037;-75
2021/09/01 05:11:08;;;;;;;13.85;5.72;;;;;;;14.33;83.83;102540.19;5009275;28;20034;-75
2021/09/01 05:13:35;;;;;;;11.27;5.00;;;;;;;14.32;84.07;102543.78;5002897;28;20026;-75
2021/09/01 05:16:01;;;;;;;10.52;5.45;;;;;;;14.32;84.14;102543.78;5001278;28;20077;-75
2021/09/01 05:18:26;;;;;;;12.60;4.55;;;;;;;14.32;84.41;102543.78;4985535;28;20034;-76
2021/09/01 05:20:58;;;;;;;8.07;4.65;;;;;;;14.33;84.28;102547.22;5003883;28;20037;-75
2021/09/01 05:23:32;;;;;;;9.35;4.53;;;;;;;14.32;84.43;102548.19;4985264;28;20034;-74
2021/09/01 05:26:05;;;;;;;15.07;5.15;;;;;;;14.31;84.49;102549.94;4984701;28;21213;-75
2021/09/01 05:28:33;;;;;;;11.40;5.10;;;;;;;14.31;84.56;102541.31;5000303;28;20092;-75
2021/09/01 05:31:01;;;;;;;13.02;5.22;;;;;;;14.30;84.76;102534.44;4984005;28;20678;-75
2021/09/01 05:33:35;;;;;;;11.35;4.68;;;;;;;14.30;84.58;102544.88;5000528;28;20072;-74
2021/09/01 05:36:03;;;;;;;10.93;4.45;;;;;;;14.31;84.66;102544.72;4982239;28;20039;-75
2021/09/01 05:38:32;;;;;;;13.82;5.82;;;;;;;14.33;84.49;102547.22;5000934;28;20567;-74
2021/09/01 05:40:59;;;;;;;11.82;4.82;;;;;;;14.29;84.89;102538.00;5000528;28;20116;-74
2021/09/01 05:43:26;;;;;;;12.63;5.30;;;;;;;14.30;84.68;102543.09;4984409;28;20030;-75
2021/09/01 05:45:51;;;;;;;13.80;5.20;;;;;;;14.30;84.49;102540.50;4983434;28;20489;-74
2021/09/01 05:48:19;;;;;;;13.63;4.90;;;;;;;14.30;84.81;102544.88;4969869;28;20061;-75
2021/09/01 05:50:53;;;;;;;11.68;5.30;;;;;;;14.35;84.52;102546.13;4985343;28;20034;-75
2021/09/01 05:53:19;;;;;;;14.10;5.00;;;;;;;14.36;84.35;102549.53;4999565;28;20030;-75
2021/09/01 05:55:49;;;;;;;9.95;4.53;;;;;;;14.36;84.38;102544.34;4985887;28;20054;-75
2021/09/01 05:58:17;;;;;;;17.52;5.28;;;;;;;14.36;84.33;102546.94;5000627;28;20134;-75
2021/09/01 06:00:43;;;;;;;12.75;5.55;;;;;;;14.37;84.46;102546.81;5001131;28;20022;-74
2021/09/01 06:03:31;;;;;;;12.20;4.15;;;;;;;14.37;84.52;102552.03;5001087;28;20038;-75
2021/09/01 06:06:00;;;;;;;18.63;4.47;;;;;;;14.37;84.50;102541.59;5001144;28;20030;-75
2021/09/01 06:08:32;;;;;;;12.27;5.40;;;;;;;14.39;84.60;102550.09;4985923;28;20042;-75
2021/09/01 06:10:59;;;;;;;10.13;4.83;;;;;;;14.40;84.31;102545.69;4986211;28;20038;-75
2021/09/01 06:13:24;;;;;;;15.75;5.50;;;;;;;14.39;84.87;102544.88;4998411;28;20117;-75
2021/09/01 06:15:50;;;;;;;11.57;4.68;;;;;;;14.41;84.85;102547.34;4984973;28;20456;-75
2021/09/01 06:18:16;;;;;;;10.35;4.20;;;;;;;14.44;84.91;102547.06;5001585;28;20041;-74
2021/09/01 06:20:42;;;;;;;17.30;6.18;;;;;;;14.44;84.82;102539.22;5001427;28;20038;-75
2021/09/01 06:23:07;;;;;;;16.48;4.80;;;;;;;14.47;84.96;102552.00;4999238;28;20034;-75
2021/09/01 06:25:33;;;;;;;20.17;5.80;;;;;;;14.51;84.85;102544.72;4986073;28;20030;-75
2021/09/01 06:27:59;;;;;;;24.23;6.63;;;;;;;14.53;84.89;102543.63;4998607;28;20116;-75
2021/09/01 06:30:25;;;;;;;15.52;5.35;;;;;;;14.54;84.56;102552.25;5002748;28;20535;-75
2021/09/01 06:32:51;;;;;;;16.67;5.55;;;;;;;14.53;84.71;102546.22;4988798;28;20114;-75
2021/09/01 06:35:17;;;;;;;14.82;4.40;;;;;;;14.54;84.49;102554.88;5001994;28;20018;-74
2021/09/01 06:37:44;;;;;;;14.75;6.07;;;;;;;14.58;84.12;102559.72;4992185;28;20023;-75
2021/09/01 06:40:12;;;;;;;13.70;5.47;;;;;;;14.64;84.48;102557.53;4989254;28;20030;-74
2021/09/01 06:42:38;;;;;;;18.45;6.25;;;;;;;14.65;84.44;102557.34;4985014;28;20073;-75
2021/09/01 06:45:05;;;;;;;13.90;5.97;;;;;;;14.69;84.54;102555.28;4980269;28;20390;-74
2021/09/01 06:47:41;;;;;;;13.43;5.47;;;;;;;14.66;84.35;102561.63;4985538;28;20037;-74
2021/09/01 06:50:08;;;;;;;15.80;5.30;;;;;;;14.71;84.22;102563.81;5007159;28;20038;-75
2021/09/01 06:52:34;;;;;;;18.27;6.85;;;;;;;14.70;84.36;102563.00;4988535;28;20034;-74
2021/09/01 06:54:59;;;;;;;18.08;4.93;;;;;;;14.68;84.48;102558.88;4991923;28;20038;-74
2021/09/01 06:57:25;;;;;;;32.03;11.35;;;;;;;14.78;83.31;102562.28;4998429;28;20120;-74
2021/09/01 06:59:50;;;;;;;24.73;8.18;;;;;;;14.75;83.83;102565.19;4983359;28;20038;-74
2021/09/01 07:02:16;;;;;;;26.65;6.15;;;;;;;14.77;83.38;102558.84;4985618;28;20041;-74
2021/09/01 07:04:41;;;;;;;18.02;5.18;;;;;;;14.73;83.69;102564.50;4999826;28;20350;-75
2021/09/01 07:07:06;;;;;;;12.60;4.93;;;;;;;14.74;83.81;102556.53;4986177;28;20038;-74
2021/09/01 07:09:32;;;;;;;14.75;5.10;;;;;;;14.87;83.57;102553.59;5000153;28;20026;-74
2021/09/01 07:11:58;;;;;;;22.40;6.07;;;;;;;14.89;83.56;102562.13;5001479;28;20070;-74
2021/09/01 07:14:23;;;;;;;19.63;5.95;;;;;;;14.85;83.74;102560.75;5000287;28;20034;-74
2021/09/01 07:16:49;;;;;;;21.48;5.85;;;;;;;14.89;83.25;102556.09;4986877;28;20080;-75
2021/09/01 07:19:14;;;;;;;12.60;4.68;;;;;;;14.85;83.32;102566.00;4998290;28;20381;-75
2021/09/01 07:21:40;;;;;;;21.05;5.20;;;;;;;14.86;83.15;102562.44;4988134;28;20042;-75
2021/09/01 07:24:05;;;;;;;14.98;5.05;;;;;;;14.88;83.15;102570.09;4987594;28;20038;-75
2021/09/01 07:26:31;;;;;;;24.70;5.78;;;;;;;14.93;83.01;102571.31;5004850;28;20321;-76
2021/09/01 07:28:56;;;;;;;23.17;6.13;;;;;;;14.98;82.66;102579.56;4985663;28;20038;-77
2021/09/01 07:31:22;;;;;;;13.80;4.72;;;;;;;14.97;82.59;102577.09;4984267;28;20034;-77
2021/09/01 07:33:48;;;;;;;20.65;5.93;;;;;;;14.97;82.61;102579.69;5000258;28;20050;-76
2021/09/01 07:36:13;;;;;;;14.48;5.43;;;;;;;15.02;82.20;102589.75;5003318;28;20481;-77
2021/09/01 07:38:38;;;;;;;19.50;5.30;;;;;;;14.99;82.14;102588.22;4981074;28;20030;-76
2021/09/01 07:41:04;;;;;;;21.40;7.13;;;;;;;15.12;81.77;102596.56;4999983;28;20033;-75
2021/09/01 07:43:30;;;;;;;20.63;5.30;;;;;;;15.06;81.91;102604.16;4999636;28;20046;-76
2021/09/01 07:45:55;;;;;;;18.00;6.03;;;;;;;15.02;82.31;102605.41;4999447;28;20058;-77
2021/09/01 07:48:21;;;;;;;61.80;8.45;;;;;;;15.09;81.90;102606.50;5001908;28;20053;-75
2021/09/01 07:50:47;;;;;;;35.35;7.03;;;;;;;15.07;81.38;102616.25;4983866;28;20038;-75
2021/09/01 07:53:12;;;;;;;24.10;5.93;;;;;;;15.17;81.21;102619.66;4999915;28;20043;-77
2021/09/01 07:55:38;;;;;;;37.97;7.40;;;;;;;15.18;81.44;102618.69;4966652;28;20057;-76
2021/09/01 07:58:04;;;;;;;14.27;5.32;;;;;;;15.10;80.85;102629.84;4986295;28;20088;-76
2021/09/01 08:00:29;;;;;;;19.27;5.38;;;;;;;15.05;80.72;102632.06;4999780;28;20563;-77
2021/09/01 08:02:55;;;;;;;368.58;34.85;;;;;;;15.05;80.58;102626.00;5004023;28;20034;-77
2021/09/01 08:05:21;;;;;;;162.00;17.15;;;;;;;15.03;80.52;102636.63;5004866;28;20041;-77
2021/09/01 08:07:48;;;;;;;15.93;5.18;;;;;;;15.08;79.28;102631.78;5007202;28;20034;-75
2021/09/01 08:10:14;;;;;;;14.38;4.78;;;;;;;15.06;79.84;102638.94;5007886;28;20038;-76
2021/09/01 08:12:40;;;;;;;26.67;6.60;;;;;;;15.07;80.57;102635.38;5003458;28;20034;-77
2021/09/01 08:15:07;;;;;;;20.20;5.55;;;;;;;15.08;80.85;102638.78;5008367;28;20179;-77
2021/09/01 08:17:33;;;;;;;188.35;17.30;;;;;;;15.10;79.05;102636.88;4988527;28;20046;-77
2021/09/01 08:19:59;;;;;;;44.08;7.45;;;;;;;14.97;80.32;102640.63;5009528;28;20064;-77
2021/09/01 08:22:24;;;;;;;144.80;19.23;;;;;;;14.97;80.17;102632.78;5006133;28;20030;-76
2021/09/01 08:24:50;;;;;;;452.33;47.22;;;;;;;15.07;79.24;102637.13;5001937;28;20038;-77
2021/09/01 08:27:15;;;;;;;590.17;56.92;;;;;;;15.05;79.13;102642.53;4970312;28;20061;-76
2021/09/01 08:29:41;;;;;;;318.48;31.58;;;;;;;15.08;78.98;102654.47;4989597;28;20045;-75
2021/09/01 08:32:08;;;;;;;138.13;16.05;;;;;;;15.07;78.99;102651.03;5007378;28;20168;-77
2021/09/01 08:34:33;;;;;;;598.00;61.65;;;;;;;15.06;79.40;102656.41;5009307;28;20475;-77
2021/09/01 08:37:00;;;;;;;490.92;47.20;;;;;;;15.11;78.63;102654.19;5009853;28;20044;-78
2021/09/01 08:39:26;;;;;;;216.48;24.25;;;;;;;15.11;79.11;102660.25;5002172;28;20038;-77
2021/09/01 08:41:52;;;;;;;19.83;5.70;;;;;;;15.17;78.39;102661.47;5014107;28;20081;-77
2021/09/01 08:44:21;;;;;;;117.22;11.52;;;;;;;15.18;79.01;102658.72;4995252;28;20062;-77
2021/09/01 08:46:49;;;;;;;337.48;37.08;;;;;;;15.28;78.71;102663.91;5003117;28;20035;-76
2021/09/01 08:49:17;;;;;;;145.68;15.45;;;;;;;15.37;77.84;102664.88;4989677;28;20068;-77
2021/09/01 08:51:43;;;;;;;110.47;15.15;;;;;;;15.32;78.33;102665.28;5004380;28;20053;-76
2021/09/01 08:54:09;;;;;;;24.42;5.95;;;;;;;15.34;78.77;102663.34;5000168;28;20061;-77
2021/09/01 08:56:34;;;;;;;19.65;5.85;;;;;;;15.39;79.17;102660.31;4999603;28;20460;-77
2021/09/01 08:59:00;;;;;;;38.05;8.88;;;;;;;15.43;78.86;102659.06;5012628;28;20026;-76
2021/09/01 09:01:39;;;;;;;462.75;51.60;;;;;;;15.46;78.46;102652.72;5002811;28;20511;-77
2021/09/01 09:04:06;;;;;;;511.30;50.10;;;;;;;15.54;78.26;102658.88;5002594;28;20045;-77
2021/09/01 09:06:50;;;;;;;734.08;71.28;;;;;;;15.50;77.27;102649.69;4987987;28;20026;-76
2021/09/01 09:09:20;;;;;;;508.38;47.50;;;;;;;15.54;76.86;102651.03;5015263;28;20080;-77
2021/09/01 09:11:46;;;;;;;531.35;50.35;;;;;;;15.54;76.73;102647.59;5008108;28;20118;-77
2021/09/01 09:14:26;;;;;;;83.70;12.70;;;;;;;15.59;77.03;102650.59;5001398;28;20068;-78
2021/09/01 09:17:12;;;;;;;46.67;8.02;;;;;;;15.64;77.12;102651.00;5009902;28;20058;-78
2021/09/01 09:19:48;;;;;;;119.70;13.65;;;;;;;15.68;77.07;102644.50;4986302;28;20061;-77
2021/09/01 09:22:18;;;;;;;177.38;16.20;;;;;;;15.62;77.35;102647.69;5001644;28;20034;-81
2021/09/01 09:24:43;;;;;;;210.70;23.17;;;;;;;15.62;77.11;102654.72;5000378;28;20053;-79
2021/09/01 09:27:09;;;;;;;98.22;13.68;;;;;;;15.58;77.50;102648.97;5003604;28;20076;-77
2021/09/01 09:29:35;;;;;;;30.95;7.25;;;;;;;15.62;78.08;102652.13;5000999;28;20072;-78
2021/09/01 09:32:07;;;;;;;18.58;6.25;;;;;;;15.61;77.70;102656.50;4985770;28;20042;-77
2021/09/01 09:34:40;;;;;;;9.63;4.55;;;;;;;15.65;77.56;102654.41;4984973;28;20038;-78
2021/09/01 09:37:08;;;;;;;14.55;4.93;;;;;;;15.72;77.49;102655.50;5000922;28;20137;-77
2021/09/01 09:39:48;;;;;;;15.90;5.28;;;;;;;15.71;76.98;102659.09;5003396;28;20186;-78
2021/09/01 09:42:28;;;;;;;48.83;7.68;;;;;;;15.77;76.98;102667.19;4999001;28;20077;-78
2021/09/01 09:44:54;;;;;;;18.58;4.93;;;;;;;15.84;77.05;102662.22;4981025;28;20041;-78
2021/09/01 09:47:45;;;;;;;16.52;4.75;;;;;;;15.91;76.00;102665.06;4968100;28;20026;-76
2021/09/01 09:50:11;;;;;;;16.55;4.65;;;;;;;15.91;74.83;102663.25;4980219;28;20030;-77
2021/09/01 09:52:37;;;;;;;21.05;5.18;;;;;;;15.95;74.75;102666.41;5001442;28;20076;-74
2021/09/01 09:55:19;;;;;;;14.50;4.53;;;;;;;16.07;74.68;102667.88;5000525;28;20033;-80
2021/09/01 09:57:53;;;;;;;13.50;4.47;;;;;;;16.15;74.35;102661.91;4999683;28;20401;-78
2021/09/01 10:00:20;;;;;;;15.65;4.75;;;;;;;16.18;74.45;102656.38;4999537;28;20042;-78
2021/09/01 10:02:46;;;;;;;10.80;4.28;;;;;;;16.25;73.66;102653.97;5001641;28;20077;-77
2021/09/01 10:05:13;;;;;;;12.50;4.32;;;;;;;16.28;71.50;102656.31;5000630;28;20027;-77
2021/09/01 10:07:39;;;;;;;10.32;4.18;;;;;;;16.34;71.97;102655.69;4985400;28;20065;-77
2021/09/01 10:10:06;;;;;;;12.43;3.88;;;;;;;16.29;71.11;102650.09;4982982;28;20037;-77
2021/09/01 10:12:31;;;;;;;16.67;4.20;;;;;;;16.30;71.56;102649.94;5002012;28;20038;-76
2021/09/01 10:14:59;;;;;;;10.85;3.75;;;;;;;16.31;70.76;102645.53;4986794;28;20420;-78
2021/09/01 10:17:27;;;;;;;9.73;4.28;;;;;;;16.31;70.42;102653.38;4998723;28;20458;-77
2021/09/01 10:19:53;;;;;;;8.30;3.95;;;;;;;16.40;69.82;102649.88;4998165;28;20030;-77
2021/09/01 10:22:19;;;;;;;12.70;3.83;;;;;;;16.41;70.90;102642.84;4987900;28;20120;-78
2021/09/01 10:24:45;;;;;;;10.68;4.07;;;;;;;16.44;71.12;102640.72;4968672;28;20018;-77
2021/09/01 10:27:29;;;;;;;11.63;3.60;;;;;;;16.58;69.98;102641.19;5000572;28;20392;-77
2021/09/01 10:30:10;;;;;;;9.60;3.17;;;;;;;16.57;68.05;102634.31;5000839;28;20034;-78
2021/09/01 10:32:46;;;;;;;11.18;3.60;;;;;;;16.72;68.75;102633.59;4986684;28;20030;-79
2021/09/01 10:35:12;;;;;;;13.95;4.05;;;;;;;16.73;69.50;102635.25;4985411;28;20030;-77
2021/09/01 10:37:54;;;;;;;12.85;4.05;;;;;;;16.81;69.66;102638.91;5001748;28;20233;-76
2021/09/01 10:40:23;;;;;;;7.75;3.20;;;;;;;16.83;68.78;102631.75;5000747;28;20034;-78
2021/09/01 10:42:56;;;;;;;9.93;2.80;;;;;;;16.84;68.74;102629.00;4985169;28;20045;-76
2021/09/01 10:45:21;;;;;;;16.10;5.00;;;;;;;16.91;68.19;102630.03;4997514;28;20057;-75
2021/09/01 10:47:50;;;;;;;13.65;3.58;;;;;;;17.04;68.31;102629.59;4985439;28;20503;-75
2021/09/01 10:50:19;;;;;;;6.53;2.70;;;;;;;17.07;67.96;102628.47;4986479;28;20424;-75
2021/09/01 10:53:00;;;;;;;13.98;3.60;;;;;;;17.19;67.66;102624.59;4986503;28;20416;-75
2021/09/01 10:55:26;;;;;;;5.90;3.05;;;;;;;17.21;68.55;102620.03;4999719;28;20380;-76
2021/09/01 10:58:24;;;;;;;10.23;3.15;;;;;;;17.10;67.62;102612.44;4999183;28;20440;-75
2021/09/01 11:00:55;;;;;;;11.35;3.80;;;;;;;17.06;67.79;102618.97;4997643;28;20045;-74
2021/09/01 11:03:33;;;;;;;11.57;3.42;;;;;;;17.13;66.35;102607.69;4982303;28;20445;-75
2021/09/01 11:06:20;;;;;;;11.38;3.53;;;;;;;17.03;68.09;102604.38;4985506;28;20399;-75
2021/09/01 11:09:11;;;;;;;12.45;3.67;;;;;;;17.25;67.87;102610.91;4984763;28;20042;-77
2021/09/01 11:11:43;;;;;;;10.00;4.38;;;;;;;17.23;68.01;102607.59;4997773;28;20026;-76
2021/09/01 11:14:11;;;;;;;8.87;3.60;;;;;;;17.22;66.90;102611.19;4984786;28;20034;-75
2021/09/01 11:16:37;;;;;;;9.75;3.60;;;;;;;17.25;66.57;102613.53;4984031;28;20112;-75
2021/09/01 11:19:05;;;;;;;11.82;3.72;;;;;;;17.21;67.13;102609.53;4981969;28;20038;-75